sensor_id;sensor_type;location;lat;lon;timestamp;pressure;altitude;pressure_sealevel;temperature;humidity
71126;BME280;58785;55.566;38.058;2023-08-24T00:00:11;99768.47;;;15.74;83.24
71126;BME280;58785;55.566;38.058;2023-08-24T00:02:37;99754.34;;;15.72;82.80
71126;BME280;58785;55.566;38.058;2023-08-24T00:05:03;99767.78;;;15.72;83.25
71126;BME280;58785;55.566;38.058;2023-08-24T00:07:29;99766.78;;;15.73;82.99
71126;BME280;58785;55.566;38.058;2023-08-24T00:09:55;99765.69;;;15.67;83.27
71126;BME280;58785;55.566;38.058;2023-08-24T00:12:21;99776.25;;;15.69;83.12
71126;BME280;58785;55.566;38.058;2023-08-24T00:14:47;99776.16;;;15.62;83.50
71126;BME280;58785;55.566;38.058;2023-08-24T00:17:12;99783.03;;;15.65;83.80
71126;BME280;58785;55.566;38.058;2023-08-24T00:19:38;99797.38;;;15.72;83.27
71126;BME280;58785;55.566;38.058;2023-08-24T00:22:04;99788.75;;;15.76;83.45
71126;BME280;58785;55.566;38.058;2023-08-24T00:24:29;99789.00;;;15.81;82.97
71126;BME280;58785;55.566;38.058;2023-08-24T00:26:55;99779.66;;;15.77;83.16
71126;BME280;58785;55.566;38.058;2023-08-24T00:29:21;99796.13;;;15.89;83.16
71126;BME280;58785;55.566;38.058;2023-08-24T00:31:47;99800.69;;;15.89;83.19
71126;BME280;58785;55.566;38.058;2023-08-24T00:34:13;99794.66;;;15.87;83.04
71126;BME280;58785;55.566;38.058;2023-08-24T00:36:39;99805.59;;;15.85;82.82
71126;BME280;58785;55.566;38.058;2023-08-24T00:39:04;99800.16;;;15.78;83.51
71126;BME280;58785;55.566;38.058;2023-08-24T00:41:31;99803.03;;;15.77;83.67
71126;BME280;58785;55.566;38.058;2023-08-24T00:43:57;99813.00;;;15.83;83.37
71126;BME280;58785;55.566;38.058;2023-08-24T00:46:23;99809.31;;;15.84;83.65
71126;BME280;58785;55.566;38.058;2023-08-24T00:48:53;99803.56;;;15.87;83.23
71126;BME280;58785;55.566;38.058;2023-08-24T00:51:23;99801.31;;;15.91;83.29
71126;BME280;58785;55.566;38.058;2023-08-24T00:53:50;99794.47;;;15.88;83.49
71126;BME280;58785;55.566;38.058;2023-08-24T00:56:16;99796.13;;;15.89;83.10
71126;BME280;58785;55.566;38.058;2023-08-24T00:58:42;99807.28;;;15.86;83.44
71126;BME280;58785;55.566;38.058;2023-08-24T01:01:10;99800.44;;;15.84;83.30
71126;BME280;58785;55.566;38.058;2023-08-24T01:03:35;99799.75;;;15.81;83.45
71126;BME280;58785;55.566;38.058;2023-08-24T01:06:01;99791.88;;;15.80;83.79
71126;BME280;58785;55.566;38.058;2023-08-24T01:08:27;99807.91;;;15.88;83.51
71126;BME280;58785;55.566;38.058;2023-08-24T01:11:02;99810.03;;;15.93;83.38
71126;BME280;58785;55.566;38.058;2023-08-24T01:13:50;99802.53;;;15.88;83.54
71126;BME280;58785;55.566;38.058;2023-08-24T01:16:26;99813.19;;;15.96;83.41
71126;BME280;58785;55.566;38.058;2023-08-24T01:18:57;99811.03;;;15.92;83.58
71126;BME280;58785;55.566;38.058;2023-08-24T01:21:28;99802.91;;;15.85;83.60
71126;BME280;58785;55.566;38.058;2023-08-24T01:24:17;99816.50;;;15.98;83.42
71126;BME280;58785;55.566;38.058;2023-08-24T01:26:45;99807.03;;;16.02;83.54
71126;BME280;58785;55.566;38.058;2023-08-24T01:29:13;99809.78;;;16.09;83.52
71126;BME280;58785;55.566;38.058;2023-08-24T01:31:41;99814.78;;;16.12;83.41
71126;BME280;58785;55.566;38.058;2023-08-24T01:34:06;99814.97;;;16.10;83.32
71126;BME280;58785;55.566;38.058;2023-08-24T01:36:32;99820.84;;;16.14;83.55
71126;BME280;58785;55.566;38.058;2023-08-24T01:39:11;99812.09;;;16.12;83.65
71126;BME280;58785;55.566;38.058;2023-08-24T01:41:39;99808.53;;;16.05;83.71
71126;BME280;58785;55.566;38.058;2023-08-24T01:44:09;99817.66;;;16.10;83.88
71126;BME280;58785;55.566;38.058;2023-08-24T01:46:39;99801.47;;;16.04;83.71
71126;BME280;58785;55.566;38.058;2023-08-24T01:49:08;99808.78;;;16.10;84.04
71126;BME280;58785;55.566;38.058;2023-08-24T01:51:34;99812.50;;;16.09;84.07
71126;BME280;58785;55.566;38.058;2023-08-24T01:54:01;99806.28;;;16.08;84.34
71126;BME280;58785;55.566;38.058;2023-08-24T01:56:27;99809.34;;;16.05;84.38
71126;BME280;58785;55.566;38.058;2023-08-24T01:58:52;99804.81;;;16.06;84.30
71126;BME280;58785;55.566;38.058;2023-08-24T02:01:18;99813.31;;;16.09;84.14
71126;BME280;58785;55.566;38.058;2023-08-24T02:03:43;99811.03;;;16.06;84.48
71126;BME280;58785;55.566;38.058;2023-08-24T02:06:09;99798.41;;;16.07;84.55
71126;BME280;58785;55.566;38.058;2023-08-24T02:08:35;99805.44;;;16.08;84.67
71126;BME280;58785;55.566;38.058;2023-08-24T02:11:01;99799.88;;;16.09;84.43
71126;BME280;58785;55.566;38.058;2023-08-24T02:13:27;99808.56;;;16.12;84.56
71126;BME280;58785;55.566;38.058;2023-08-24T02:16:07;99810.81;;;16.08;84.49
71126;BME280;58785;55.566;38.058;2023-08-24T02:18:34;99816.00;;;16.09;84.85
71126;BME280;58785;55.566;38.058;2023-08-24T02:21:00;99808.56;;;16.12;84.54
71126;BME280;58785;55.566;38.058;2023-08-24T02:23:25;99819.63;;;16.17;84.22
71126;BME280;58785;55.566;38.058;2023-08-24T02:25:51;99804.84;;;16.13;84.56
71126;BME280;58785;55.566;38.058;2023-08-24T02:28:17;99819.63;;;16.17;84.56
71126;BME280;58785;55.566;38.058;2023-08-24T02:30:42;99815.25;;;16.16;84.45
71126;BME280;58785;55.566;38.058;2023-08-24T02:33:08;99811.94;;;16.14;84.82
71126;BME280;58785;55.566;38.058;2023-08-24T02:35:34;99815.06;;;16.17;84.73
71126;BME280;58785;55.566;38.058;2023-08-24T02:37:59;99808.66;;;16.18;84.66
71126;BME280;58785;55.566;38.058;2023-08-24T02:40:25;99817.44;;;16.27;84.47
71126;BME280;58785;55.566;38.058;2023-08-24T02:42:51;99807.50;;;16.27;84.32
71126;BME280;58785;55.566;38.058;2023-08-24T02:45:16;99808.53;;;16.26;84.25
71126;BME280;58785;55.566;38.058;2023-08-24T02:47:42;99819.34;;;16.33;84.60
71126;BME280;58785;55.566;38.058;2023-08-24T02:50:08;99808.59;;;16.33;84.12
71126;BME280;58785;55.566;38.058;2023-08-24T02:52:34;99816.94;;;16.38;84.22
71126;BME280;58785;55.566;38.058;2023-08-24T02:54:59;99811.28;;;16.33;84.11
71126;BME280;58785;55.566;38.058;2023-08-24T02:57:25;99825.19;;;16.36;84.09
71126;BME280;58785;55.566;38.058;2023-08-24T02:59:50;99825.41;;;16.35;84.28
71126;BME280;58785;55.566;38.058;2023-08-24T03:02:16;99829.28;;;16.32;84.26
71126;BME280;58785;55.566;38.058;2023-08-24T03:04:42;99837.44;;;16.39;84.01
71126;BME280;58785;55.566;38.058;2023-08-24T03:07:08;99833.28;;;16.36;84.13
71126;BME280;58785;55.566;38.058;2023-08-24T03:09:35;99832.81;;;16.33;84.06
71126;BME280;58785;55.566;38.058;2023-08-24T03:12:01;99838.84;;;16.35;83.77
71126;BME280;58785;55.566;38.058;2023-08-24T03:14:28;99835.13;;;16.36;84.11
71126;BME280;58785;55.566;38.058;2023-08-24T03:16:54;99835.97;;;16.36;84.14
71126;BME280;58785;55.566;38.058;2023-08-24T03:19:19;99845.50;;;16.39;84.12
71126;BME280;58785;55.566;38.058;2023-08-24T03:21:45;99845.31;;;16.41;84.20
71126;BME280;58785;55.566;38.058;2023-08-24T03:24:11;99847.94;;;16.34;84.12
71126;BME280;58785;55.566;38.058;2023-08-24T03:26:36;99848.25;;;16.24;84.65
71126;BME280;58785;55.566;38.058;2023-08-24T03:29:02;99862.75;;;16.08;84.64
71126;BME280;58785;55.566;38.058;2023-08-24T03:31:27;99851.38;;;15.92;84.84
71126;BME280;58785;55.566;38.058;2023-08-24T03:33:53;99861.41;;;15.83;85.17
71126;BME280;58785;55.566;38.058;2023-08-24T03:36:19;99847.59;;;15.71;85.22
71126;BME280;58785;55.566;38.058;2023-08-24T03:38:44;99849.13;;;15.74;85.32
71126;BME280;58785;55.566;38.058;2023-08-24T03:41:13;99853.00;;;15.71;84.72
71126;BME280;58785;55.566;38.058;2023-08-24T03:43:38;99858.66;;;15.76;84.70
71126;BME280;58785;55.566;38.058;2023-08-24T03:46:04;99858.47;;;15.78;84.66
71126;BME280;58785;55.566;38.058;2023-08-24T03:48:32;99844.28;;;15.69;84.79
71126;BME280;58785;55.566;38.058;2023-08-24T03:50:58;99857.44;;;15.79;84.88
71126;BME280;58785;55.566;38.058;2023-08-24T03:53:24;99857.44;;;15.79;84.98
71126;BME280;58785;55.566;38.058;2023-08-24T03:55:52;99848.53;;;15.78;84.79
71126;BME280;58785;55.566;38.058;2023-08-24T03:58:17;99851.97;;;15.87;84.92
71126;BME280;58785;55.566;38.058;2023-08-24T04:00:46;99852.78;;;15.88;84.46
71126;BME280;58785;55.566;38.058;2023-08-24T04:03:16;99864.81;;;15.92;84.45
71126;BME280;58785;55.566;38.058;2023-08-24T04:05:50;99869.03;;;15.94;84.29
71126;BME280;58785;55.566;38.058;2023-08-24T04:08:16;99870.00;;;15.93;84.14
71126;BME280;58785;55.566;38.058;2023-08-24T04:10:43;99880.13;;;15.91;84.03
71126;BME280;58785;55.566;38.058;2023-08-24T04:13:09;99870.41;;;15.90;84.46
71126;BME280;58785;55.566;38.058;2023-08-24T04:15:34;99862.28;;;15.84;84.01
71126;BME280;58785;55.566;38.058;2023-08-24T04:18:00;99872.69;;;15.93;83.83
71126;BME280;58785;55.566;38.058;2023-08-24T04:20:26;99880.66;;;16.01;83.92
71126;BME280;58785;55.566;38.058;2023-08-24T04:22:52;99873.34;;;16.10;83.50
71126;BME280;58785;55.566;38.058;2023-08-24T04:25:18;99863.50;;;16.02;83.26
71126;BME280;58785;55.566;38.058;2023-08-24T04:27:45;99878.59;;;16.18;83.23
71126;BME280;58785;55.566;38.058;2023-08-24T04:30:11;99877.19;;;16.22;82.67
71126;BME280;58785;55.566;38.058;2023-08-24T04:32:37;99874.88;;;16.19;82.76
71126;BME280;58785;55.566;38.058;2023-08-24T04:35:03;99876.34;;;16.22;82.54
71126;BME280;58785;55.566;38.058;2023-08-24T04:37:32;99878.69;;;16.25;82.27
71126;BME280;58785;55.566;38.058;2023-08-24T04:39:58;99879.31;;;16.27;82.19
71126;BME280;58785;55.566;38.058;2023-08-24T04:42:23;99878.50;;;16.26;82.39
71126;BME280;58785;55.566;38.058;2023-08-24T04:44:50;99882.84;;;16.27;82.21
71126;BME280;58785;55.566;38.058;2023-08-24T04:47:16;99889.25;;;16.26;82.67
71126;BME280;58785;55.566;38.058;2023-08-24T04:49:42;99879.13;;;16.28;82.29
71126;BME280;58785;55.566;38.058;2023-08-24T04:52:07;99870.66;;;16.31;82.57
71126;BME280;58785;55.566;38.058;2023-08-24T04:54:33;99891.00;;;16.34;82.69
71126;BME280;58785;55.566;38.058;2023-08-24T04:56:59;99877.56;;;16.34;82.74
71126;BME280;58785;55.566;38.058;2023-08-24T04:59:25;99878.75;;;16.31;82.46
71126;BME280;58785;55.566;38.058;2023-08-24T05:01:50;99878.81;;;16.38;82.49
71126;BME280;58785;55.566;38.058;2023-08-24T05:04:16;99877.25;;;16.44;81.71
71126;BME280;58785;55.566;38.058;2023-08-24T05:06:51;99875.81;;;16.48;81.77
71126;BME280;58785;55.566;38.058;2023-08-24T05:09:16;99867.47;;;16.43;81.58
71126;BME280;58785;55.566;38.058;2023-08-24T05:11:43;99887.88;;;16.52;81.41
71126;BME280;58785;55.566;38.058;2023-08-24T05:14:09;99890.41;;;16.38;81.60
71126;BME280;58785;55.566;38.058;2023-08-24T05:16:34;99876.16;;;16.23;82.07
71126;BME280;58785;55.566;38.058;2023-08-24T05:19:00;99888.22;;;16.27;82.10
71126;BME280;58785;55.566;38.058;2023-08-24T05:21:29;99884.72;;;16.27;82.15
71126;BME280;58785;55.566;38.058;2023-08-24T05:23:54;99880.16;;;16.27;82.08
71126;BME280;58785;55.566;38.058;2023-08-24T05:26:20;99871.91;;;16.29;81.87
71126;BME280;58785;55.566;38.058;2023-08-24T05:28:48;99877.28;;;16.29;81.53
71126;BME280;58785;55.566;38.058;2023-08-24T05:31:13;99880.53;;;16.24;81.97
71126;BME280;58785;55.566;38.058;2023-08-24T05:33:39;99882.31;;;16.17;81.79
71126;BME280;58785;55.566;38.058;2023-08-24T05:36:05;99877.50;;;16.13;82.22
71126;BME280;58785;55.566;38.058;2023-08-24T05:38:30;99871.66;;;16.09;82.21
71126;BME280;58785;55.566;38.058;2023-08-24T05:40:56;99871.47;;;16.10;82.00
71126;BME280;58785;55.566;38.058;2023-08-24T05:43:22;99883.44;;;16.08;82.35
71126;BME280;58785;55.566;38.058;2023-08-24T05:45:50;99886.78;;;16.10;82.45
71126;BME280;58785;55.566;38.058;2023-08-24T05:48:16;99873.34;;;16.10;82.20
71126;BME280;58785;55.566;38.058;2023-08-24T05:50:46;99873.44;;;16.02;82.04
71126;BME280;58785;55.566;38.058;2023-08-24T05:53:15;99888.38;;;16.04;82.12
71126;BME280;58785;55.566;38.058;2023-08-24T05:55:41;99884.38;;;16.00;82.40
71126;BME280;58785;55.566;38.058;2023-08-24T05:58:07;99887.38;;;16.05;82.31
71126;BME280;58785;55.566;38.058;2023-08-24T06:00:33;99890.88;;;16.06;82.34
71126;BME280;58785;55.566;38.058;2023-08-24T06:03:00;99899.31;;;16.03;82.16
71126;BME280;58785;55.566;38.058;2023-08-24T06:05:25;99898.03;;;15.99;82.62
71126;BME280;58785;55.566;38.058;2023-08-24T06:07:51;99895.25;;;15.92;82.49
71126;BME280;58785;55.566;38.058;2023-08-24T06:10:17;99902.66;;;15.90;82.70
71126;BME280;58785;55.566;38.058;2023-08-24T06:12:43;99901.19;;;15.88;83.08
71126;BME280;58785;55.566;38.058;2023-08-24T06:15:09;99910.28;;;15.87;83.00
71126;BME280;58785;55.566;38.058;2023-08-24T06:17:38;99911.66;;;15.82;82.96
71126;BME280;58785;55.566;38.058;2023-08-24T06:20:04;99911.66;;;15.82;82.97
71126;BME280;58785;55.566;38.058;2023-08-24T06:22:31;99910.81;;;15.82;82.86
71126;BME280;58785;55.566;38.058;2023-08-24T06:24:57;99917.53;;;15.86;83.09
71126;BME280;58785;55.566;38.058;2023-08-24T06:27:25;99906.19;;;15.91;82.94
71126;BME280;58785;55.566;38.058;2023-08-24T06:29:51;99910.75;;;15.90;82.77
71126;BME280;58785;55.566;38.058;2023-08-24T06:32:16;99910.34;;;15.93;82.57
71126;BME280;58785;55.566;38.058;2023-08-24T06:34:42;99915.38;;;15.96;82.43
71126;BME280;58785;55.566;38.058;2023-08-24T06:37:08;99927.41;;;16.00;82.49
71126;BME280;58785;55.566;38.058;2023-08-24T06:39:33;99921.78;;;15.95;82.65
71126;BME280;58785;55.566;38.058;2023-08-24T06:41:59;99931.22;;;15.91;82.71
71126;BME280;58785;55.566;38.058;2023-08-24T06:44:25;99925.59;;;15.86;82.64
71126;BME280;58785;55.566;38.058;2023-08-24T06:46:50;99923.56;;;15.73;82.85
71126;BME280;58785;55.566;38.058;2023-08-24T06:49:16;99929.47;;;15.69;83.33
71126;BME280;58785;55.566;38.058;2023-08-24T06:51:42;99923.84;;;15.64;83.04
71126;BME280;58785;55.566;38.058;2023-08-24T06:54:08;99931.22;;;15.62;82.98
71126;BME280;58785;55.566;38.058;2023-08-24T06:56:33;99934.44;;;15.57;83.10
71126;BME280;58785;55.566;38.058;2023-08-24T06:58:59;99951.34;;;15.66;83.04
71126;BME280;58785;55.566;38.058;2023-08-24T07:01:25;99953.22;;;15.65;83.18
71126;BME280;58785;55.566;38.058;2023-08-24T07:03:51;99952.03;;;15.60;83.43
71126;BME280;58785;55.566;38.058;2023-08-24T07:06:17;99956.78;;;15.58;83.16
71126;BME280;58785;55.566;38.058;2023-08-24T07:08:43;99949.09;;;15.55;83.45
71126;BME280;58785;55.566;38.058;2023-08-24T07:11:08;99959.66;;;15.56;83.11
71126;BME280;58785;55.566;38.058;2023-08-24T07:13:34;99957.81;;;15.57;83.11
71126;BME280;58785;55.566;38.058;2023-08-24T07:16:00;99953.22;;;15.65;83.12
71126;BME280;58785;55.566;38.058;2023-08-24T07:18:28;99945.59;;;15.69;82.66
71126;BME280;58785;55.566;38.058;2023-08-24T07:20:54;99955.34;;;15.70;82.85
71126;BME280;58785;55.566;38.058;2023-08-24T07:23:20;99972.88;;;15.66;83.18
71126;BME280;58785;55.566;38.058;2023-08-24T07:25:46;99954.63;;;15.53;83.16
71126;BME280;58785;55.566;38.058;2023-08-24T07:28:12;99953.78;;;15.38;83.04
71126;BME280;58785;55.566;38.058;2023-08-24T07:30:37;99951.94;;;15.38;83.42
71126;BME280;58785;55.566;38.058;2023-08-24T07:33:03;99967.78;;;15.48;83.22
71126;BME280;58785;55.566;38.058;2023-08-24T07:35:29;99970.94;;;15.51;82.92
71126;BME280;58785;55.566;38.058;2023-08-24T07:37:55;99975.78;;;15.56;82.70
71126;BME280;58785;55.566;38.058;2023-08-24T07:40:21;99951.84;;;15.46;82.38
71126;BME280;58785;55.566;38.058;2023-08-24T07:42:50;99971.97;;;15.50;82.60
71126;BME280;58785;55.566;38.058;2023-08-24T07:45:20;99950.72;;;15.41;82.31
71126;BME280;58785;55.566;38.058;2023-08-24T07:47:46;99948.34;;;15.46;82.20
71126;BME280;58785;55.566;38.058;2023-08-24T07:50:12;99961.53;;;15.70;82.20
71126;BME280;58785;55.566;38.058;2023-08-24T07:52:38;99973.34;;;15.84;81.16
71126;BME280;58785;55.566;38.058;2023-08-24T07:55:05;99959.72;;;15.86;81.56
71126;BME280;58785;55.566;38.058;2023-08-24T07:57:33;99969.81;;;15.98;80.79
71126;BME280;58785;55.566;38.058;2023-08-24T08:00:00;99977.59;;;15.93;81.00
71126;BME280;58785;55.566;38.058;2023-08-24T08:02:26;99980.28;;;15.78;81.37
71126;BME280;58785;55.566;38.058;2023-08-24T08:04:56;99981.38;;;15.69;81.92
71126;BME280;58785;55.566;38.058;2023-08-24T08:07:23;99987.56;;;15.55;82.23
71126;BME280;58785;55.566;38.058;2023-08-24T08:09:49;99985.97;;;15.46;82.39
71126;BME280;58785;55.566;38.058;2023-08-24T08:12:15;99990.38;;;15.39;82.49
71126;BME280;58785;55.566;38.058;2023-08-24T08:14:41;99988.91;;;15.36;82.45
71126;BME280;58785;55.566;38.058;2023-08-24T08:17:06;99993.63;;;15.34;83.01
71126;BME280;58785;55.566;38.058;2023-08-24T08:19:32;99990.44;;;15.31;82.82
71126;BME280;58785;55.566;38.058;2023-08-24T08:22:00;99989.84;;;15.20;82.86
71126;BME280;58785;55.566;38.058;2023-08-24T08:24:26;99990.94;;;15.11;83.41
71126;BME280;58785;55.566;38.058;2023-08-24T08:26:52;99988.97;;;15.05;83.50
71126;BME280;58785;55.566;38.058;2023-08-24T08:29:18;99977.03;;;15.08;83.07
71126;BME280;58785;55.566;38.058;2023-08-24T08:31:43;99987.59;;;15.09;83.34
71126;BME280;58785;55.566;38.058;2023-08-24T08:34:09;99983.19;;;15.16;83.12
71126;BME280;58785;55.566;38.058;2023-08-24T08:36:35;99982.28;;;15.24;82.59
71126;BME280;58785;55.566;38.058;2023-08-24T08:39:00;99977.75;;;15.24;82.90
71126;BME280;58785;55.566;38.058;2023-08-24T08:41:31;99985.63;;;15.26;82.87
71126;BME280;58785;55.566;38.058;2023-08-24T08:44:04;99981.75;;;15.29;82.51
71126;BME280;58785;55.566;38.058;2023-08-24T08:46:29;99969.97;;;15.30;82.38
71126;BME280;58785;55.566;38.058;2023-08-24T08:48:57;99980.19;;;15.34;82.54
71126;BME280;58785;55.566;38.058;2023-08-24T08:51:23;99965.81;;;15.27;82.24
71126;BME280;58785;55.566;38.058;2023-08-24T08:53:50;99978.78;;;15.38;82.59
71126;BME280;58785;55.566;38.058;2023-08-24T08:56:16;99979.19;;;15.50;82.28
71126;BME280;58785;55.566;38.058;2023-08-24T08:58:42;99979.78;;;15.60;82.21
71126;BME280;58785;55.566;38.058;2023-08-24T09:01:09;99983.44;;;15.67;81.99
71126;BME280;58785;55.566;38.058;2023-08-24T09:03:35;99985.41;;;15.73;81.74
71126;BME280;58785;55.566;38.058;2023-08-24T09:06:01;99976.47;;;15.73;81.57
71126;BME280;58785;55.566;38.058;2023-08-24T09:08:27;99981.94;;;15.79;81.86
71126;BME280;58785;55.566;38.058;2023-08-24T09:10:54;99981.22;;;15.86;81.36
71126;BME280;58785;55.566;38.058;2023-08-24T09:13:20;99988.72;;;15.90;81.66
71126;BME280;58785;55.566;38.058;2023-08-24T09:15:47;99987.16;;;15.96;81.11
71126;BME280;58785;55.566;38.058;2023-08-24T09:18:12;99988.63;;;15.98;81.17
71126;BME280;58785;55.566;38.058;2023-08-24T09:20:38;99988.19;;;15.95;81.32
71126;BME280;58785;55.566;38.058;2023-08-24T09:23:04;99989.84;;;15.96;81.27
71126;BME280;58785;55.566;38.058;2023-08-24T09:25:47;99986.31;;;15.95;81.56
71126;BME280;58785;55.566;38.058;2023-08-24T09:28:13;99993.44;;;16.03;81.31
71126;BME280;58785;55.566;38.058;2023-08-24T09:30:39;99991.78;;;16.02;81.00
71126;BME280;58785;55.566;38.058;2023-08-24T09:33:10;99997.25;;;16.08;80.87
71126;BME280;58785;55.566;38.058;2023-08-24T09:35:37;100001.25;;;16.13;80.76
71126;BME280;58785;55.566;38.058;2023-08-24T09:38:35;99995.41;;;16.24;80.85
71126;BME280;58785;55.566;38.058;2023-08-24T09:41:01;99993.19;;;16.27;80.79
71126;BME280;58785;55.566;38.058;2023-08-24T09:43:30;99993.63;;;16.31;80.62
71126;BME280;58785;55.566;38.058;2023-08-24T09:45:56;100003.38;;;16.32;80.59
71126;BME280;58785;55.566;38.058;2023-08-24T09:48:23;99996.88;;;16.26;80.65
71126;BME280;58785;55.566;38.058;2023-08-24T09:50:52;99995.88;;;16.27;80.21
71126;BME280;58785;55.566;38.058;2023-08-24T09:53:22;99996.78;;;16.20;80.27
71126;BME280;58785;55.566;38.058;2023-08-24T09:56:00;100004.41;;;16.16;80.10
71126;BME280;58785;55.566;38.058;2023-08-24T09:58:27;99998.75;;;16.11;80.74
71126;BME280;58785;55.566;38.058;2023-08-24T10:00:54;99995.56;;;15.93;80.26
71126;BME280;58785;55.566;38.058;2023-08-24T10:03:24;99991.34;;;15.84;80.85
71126;BME280;58785;55.566;38.058;2023-08-24T10:05:52;100001.63;;;15.95;80.60
71126;BME280;58785;55.566;38.058;2023-08-24T10:08:28;100001.63;;;16.09;80.20
71126;BME280;58785;55.566;38.058;2023-08-24T10:10:58;100001.88;;;16.29;79.68
71126;BME280;58785;55.566;38.058;2023-08-24T10:13:39;100009.00;;;16.52;79.08
71126;BME280;58785;55.566;38.058;2023-08-24T10:16:11;100007.94;;;16.67;78.84
71126;BME280;58785;55.566;38.058;2023-08-24T10:18:40;100010.75;;;16.74;78.01
71126;BME280;58785;55.566;38.058;2023-08-24T10:21:07;99991.91;;;16.74;78.54
71126;BME280;58785;55.566;38.058;2023-08-24T10:23:35;100012.75;;;16.87;78.35
71126;BME280;58785;55.566;38.058;2023-08-24T10:26:06;100001.88;;;16.95;77.90
71126;BME280;58785;55.566;38.058;2023-08-24T10:28:32;100003.34;;;16.98;77.83
71126;BME280;58785;55.566;38.058;2023-08-24T10:30:59;100003.41;;;17.04;77.65
71126;BME280;58785;55.566;38.058;2023-08-24T10:33:26;100007.81;;;17.12;77.21
71126;BME280;58785;55.566;38.058;2023-08-24T10:35:53;100011.56;;;17.11;77.10
71126;BME280;58785;55.566;38.058;2023-08-24T10:38:26;100011.50;;;17.04;77.07
71126;BME280;58785;55.566;38.058;2023-08-24T10:40:53;100013.22;;;17.12;76.87
71126;BME280;58785;55.566;38.058;2023-08-24T10:43:19;100013.88;;;17.14;77.21
71126;BME280;58785;55.566;38.058;2023-08-24T10:45:58;100019.94;;;17.22;76.71
71126;BME280;58785;55.566;38.058;2023-08-24T10:48:28;100012.78;;;17.30;76.37
71126;BME280;58785;55.566;38.058;2023-08-24T10:51:22;100008.09;;;17.38;75.40
71126;BME280;58785;55.566;38.058;2023-08-24T10:53:55;100007.06;;;17.39;75.39
71126;BME280;58785;55.566;38.058;2023-08-24T10:56:21;100009.19;;;17.44;75.23
71126;BME280;58785;55.566;38.058;2023-08-24T10:59:19;100003.50;;;17.60;74.74
71126;BME280;58785;55.566;38.058;2023-08-24T11:04:17;100004.00;;;17.98;74.06
71126;BME280;58785;55.566;38.058;2023-08-24T11:09:19;99991.97;;;18.35;73.39
71126;BME280;58785;55.566;38.058;2023-08-24T11:11:59;100000.53;;;18.46;73.04
71126;BME280;58785;55.566;38.058;2023-08-24T11:14:26;99993.84;;;18.42;72.64
71126;BME280;58785;55.566;38.058;2023-08-24T11:16:52;100001.16;;;18.48;72.91
71126;BME280;58785;55.566;38.058;2023-08-24T11:19:19;99998.41;;;18.41;72.37
71126;BME280;58785;55.566;38.058;2023-08-24T11:21:46;100002.97;;;18.41;71.98
71126;BME280;58785;55.566;38.058;2023-08-24T11:24:13;99998.59;;;18.39;72.13
71126;BME280;58785;55.566;38.058;2023-08-24T11:26:43;99996.56;;;18.48;71.66
71126;BME280;58785;55.566;38.058;2023-08-24T11:29:10;100000.97;;;18.56;71.30
71126;BME280;58785;55.566;38.058;2023-08-24T11:31:37;100003.63;;;18.49;71.38
71126;BME280;58785;55.566;38.058;2023-08-24T11:34:04;99998.03;;;18.44;71.38
71126;BME280;58785;55.566;38.058;2023-08-24T11:36:46;100001.34;;;18.46;70.34
71126;BME280;58785;55.566;38.058;2023-08-24T11:39:17;99988.06;;;18.45;70.39
71126;BME280;58785;55.566;38.058;2023-08-24T11:41:56;99987.69;;;18.54;70.10
71126;BME280;58785;55.566;38.058;2023-08-24T11:44:23;99985.19;;;18.59;69.64
71126;BME280;58785;55.566;38.058;2023-08-24T11:46:48;99989.56;;;18.60;69.38
71126;BME280;58785;55.566;38.058;2023-08-24T11:49:14;99986.66;;;18.62;69.18
71126;BME280;58785;55.566;38.058;2023-08-24T11:51:39;99985.41;;;18.58;68.88
71126;BME280;58785;55.566;38.058;2023-08-24T11:54:05;99988.31;;;18.63;68.73
71126;BME280;58785;55.566;38.058;2023-08-24T11:56:32;99985.59;;;18.63;68.06
71126;BME280;58785;55.566;38.058;2023-08-24T11:58:57;99986.44;;;18.63;68.15
71126;BME280;58785;55.566;38.058;2023-08-24T12:01:23;99992.47;;;18.59;68.38
71126;BME280;58785;55.566;38.058;2023-08-24T12:03:50;99987.69;;;18.54;68.04
71126;BME280;58785;55.566;38.058;2023-08-24T12:06:16;99995.75;;;18.48;68.07
71126;BME280;58785;55.566;38.058;2023-08-24T12:08:46;99987.78;;;18.33;68.57
71126;BME280;58785;55.566;38.058;2023-08-24T12:11:16;99999.13;;;18.22;68.86
71126;BME280;58785;55.566;38.058;2023-08-24T12:13:43;100000.06;;;18.01;69.61
71126;BME280;58785;55.566;38.058;2023-08-24T12:16:10;99992.94;;;17.93;70.07
71126;BME280;58785;55.566;38.058;2023-08-24T12:18:55;99993.97;;;17.86;70.69
71126;BME280;58785;55.566;38.058;2023-08-24T12:21:22;99997.44;;;17.79;70.56
71126;BME280;58785;55.566;38.058;2023-08-24T12:24:03;100005.47;;;17.73;70.73
71126;BME280;58785;55.566;38.058;2023-08-24T12:26:33;100001.63;;;17.61;70.97
71126;BME280;58785;55.566;38.058;2023-08-24T12:29:04;100001.38;;;17.56;71.01
71126;BME280;58785;55.566;38.058;2023-08-24T12:31:34;100000.09;;;17.51;70.94
71126;BME280;58785;55.566;38.058;2023-08-24T12:34:05;100000.94;;;17.52;71.15
71126;BME280;58785;55.566;38.058;2023-08-24T12:36:35;100008.25;;;17.58;71.04
71126;BME280;58785;55.566;38.058;2023-08-24T12:39:02;99998.78;;;17.69;70.90
71126;BME280;58785;55.566;38.058;2023-08-24T12:41:32;100007.88;;;17.89;70.29
71126;BME280;58785;55.566;38.058;2023-08-24T12:43:58;100002.81;;;18.07;70.00
71126;BME280;58785;55.566;38.058;2023-08-24T12:46:24;99998.66;;;18.12;69.41
71126;BME280;58785;55.566;38.058;2023-08-24T12:48:51;100005.72;;;18.13;69.00
71126;BME280;58785;55.566;38.058;2023-08-24T12:51:16;100000.13;;;18.07;69.28
71126;BME280;58785;55.566;38.058;2023-08-24T12:53:43;100002.59;;;18.09;68.99